Jump to content


SKYWEST AIRLINES FLIGHT OO4766 FLOWN ON 02-04-2018 BY CAPTAIN JIM BOERMAN

Pilot StatsCaptain Jim Boerman (LDP136) • 4,802.8 total hours • 1,455 total flights [View Logbook]
FLIGHT DETAILS
StatusReceived and approved on 2018-02-04 at 12:02:46
Origin AirportLouisville Intl-Standiford (KSDF) • Louisville, Kentucky, United States (501 feet MSL)
Filed Flight PlanKSDF IIU J8 STL J24 MCI J80 FQF KDEN
Destination AirportDenver Intl (KDEN) • Denver, Colorado, United States (5,430 feet MSL)
Alternate AirportCity Of Colorado Springs Mun (KCOS) • Colorado Springs, Colorado, United States (6,182 feet MSL)
AirlineSkywest Airlines
AircraftBombardier CRJ-700 (CR7 / CRJ-700)
FS Aircraft UsedCRJ700ER United Express N770SK
Cruising AltitudeFL340
Distance Flown887 nautical miles
Passengers Onboard50 passengers (71.43% full)
DEPARTURE DETAILS
Time Out09:08:51
Taxi Data60,829 lbs total with 11,809 lbs of fuel onboard
Takeoff Data09:24:01 (15 minutes after leaving gate/ramp) • 61,171 lbs total • 7° pitch at 163 knots
Departure METARKSDF 041256Z 15006KT 5SM BR BKN006 OVC010 01/01 A2988 RMK AO2 CIG 004V008 SLP121 T00110006
ARRIVAL DETAILS
Landing Data10:09:26 • 53,552 lbs total • 2° pitch doing 107 knots at a rate of -352.18 feet/minute with 3,302 lbs of fuel onboard
Time In10:24:25 (15 minutes after landing)
Ramp Weight53,096 lbs total
Total Fuel Used8,507 lbs
Total Block Time03:15:33 (3.3 hours) while 30 minutes were spent on the ground
Arrival METARKDEN 041653Z 13007KT 2SM -SN BR OVC011 M12/M14 A3016 RMK AO2 SFC VIS 3 SLP252 P0000 T11171139
MISCELLANEOUS DETAILS
LiveDISPATCH Version4.8.3.1
FS Version
FSUIPC Version5.12
OS VersionWindows 7 32-bit
Screen Resolution1920 x 1080
Pilot's CommentsNo Comments Reported
FLIGHT MAP